sensor_id;sensor_type;location;lat;lon;timestamp;temperature;humidity
36280;DHT22;22317;47.936;12.742;2022-11-20T00:01:42;4.60;66.90
36280;DHT22;22317;47.936;12.742;2022-11-20T00:04:09;4.80;61.50
36280;DHT22;22317;47.936;12.742;2022-11-20T00:06:35;4.70;61.20
36280;DHT22;22317;47.936;12.742;2022-11-20T00:09:01;4.80;61.60
36280;DHT22;22317;47.936;12.742;2022-11-20T00:11:28;4.70;67.30
36280;DHT22;22317;47.936;12.742;2022-11-20T00:13:56;4.70;61.20
36280;DHT22;22317;47.936;12.742;2022-11-20T00:16:24;4.70;61.10
36280;DHT22;22317;47.936;12.742;2022-11-20T00:18:51;4.90;61.20
36280;DHT22;22317;47.936;12.742;2022-11-20T00:21:25;4.60;60.40
36280;DHT22;22317;47.936;12.742;2022-11-20T00:23:53;4.50;61.10
36280;DHT22;22317;47.936;12.742;2022-11-20T00:26:20;4.60;60.30
36280;DHT22;22317;47.936;12.742;2022-11-20T00:29:00;4.60;60.30
36280;DHT22;22317;47.936;12.742;2022-11-20T00:31:26;4.60;66.00
36280;DHT22;22317;47.936;12.742;2022-11-20T00:33:53;4.40;60.70
36280;DHT22;22317;47.936;12.742;2022-11-20T00:36:20;4.60;61.10
36280;DHT22;22317;47.936;12.742;2022-11-20T00:38:50;4.40;60.20
36280;DHT22;22317;47.936;12.742;2022-11-20T00:41:16;4.40;61.00
36280;DHT22;22317;47.936;12.742;2022-11-20T00:43:42;4.30;60.30
36280;DHT22;22317;47.936;12.742;2022-11-20T00:46:19;4.30;60.30
36280;DHT22;22317;47.936;12.742;2022-11-20T00:48:46;4.70;61.10
36280;DHT22;22317;47.936;12.742;2022-11-20T00:51:14;4.30;60.90
36280;DHT22;22317;47.936;12.742;2022-11-20T00:53:40;4.20;60.40
36280;DHT22;22317;47.936;12.742;2022-11-20T00:56:08;4.20;61.10
36280;DHT22;22317;47.936;12.742;2022-11-20T00:58:36;4.50;61.20
36280;DHT22;22317;47.936;12.742;2022-11-20T01:01:05;4.20;61.00
36280;DHT22;22317;47.936;12.742;2022-11-20T01:03:32;4.20;60.50
36280;DHT22;22317;47.936;12.742;2022-11-20T01:06:03;4.20;61.00
36280;DHT22;22317;47.936;12.742;2022-11-20T01:08:33;4.20;61.00
36280;DHT22;22317;47.936;12.742;2022-11-20T01:11:08;4.10;60.20
36280;DHT22;22317;47.936;12.742;2022-11-20T01:13:34;4.10;60.30
36280;DHT22;22317;47.936;12.742;2022-11-20T01:18:34;4.00;60.30
36280;DHT22;22317;47.936;12.742;2022-11-20T01:21:14;4.00;60.30
36280;DHT22;22317;47.936;12.742;2022-11-20T01:23:42;4.00;60.50
36280;DHT22;22317;47.936;12.742;2022-11-20T01:26:13;4.10;61.00
36280;DHT22;22317;47.936;12.742;2022-11-20T01:28:40;4.10;61.20
36280;DHT22;22317;47.936;12.742;2022-11-20T01:33:39;4.10;60.70
36280;DHT22;22317;47.936;12.742;2022-11-20T01:36:06;4.10;61.10
36280;DHT22;22317;47.936;12.742;2022-11-20T01:38:32;4.10;61.10
36280;DHT22;22317;47.936;12.742;2022-11-20T01:40:58;4.10;61.90
36280;DHT22;22317;47.936;12.742;2022-11-20T01:43:24;4.00;60.40
36280;DHT22;22317;47.936;12.742;2022-11-20T01:51:00;4.30;62.10
36280;DHT22;22317;47.936;12.742;2022-11-20T01:53:31;3.80;60.80
36280;DHT22;22317;47.936;12.742;2022-11-20T01:56:00;3.90;61.50
36280;DHT22;22317;47.936;12.742;2022-11-20T01:58:31;3.90;61.60
36280;DHT22;22317;47.936;12.742;2022-11-20T02:00:58;4.10;62.10
36280;DHT22;22317;47.936;12.742;2022-11-20T02:03:24;4.00;62.10
36280;DHT22;22317;47.936;12.742;2022-11-20T02:08:20;4.50;63.80
36280;DHT22;22317;47.936;12.742;2022-11-20T02:10:46;4.30;63.30
36280;DHT22;22317;47.936;12.742;2022-11-20T02:13:12;3.80;64.60
36280;DHT22;22317;47.936;12.742;2022-11-20T02:15:56;4.60;62.90
36280;DHT22;22317;47.936;12.742;2022-11-20T02:18:23;3.90;64.70
36280;DHT22;22317;47.936;12.742;2022-11-20T02:20:54;4.50;66.60
36280;DHT22;22317;47.936;12.742;2022-11-20T02:23:32;4.10;67.00
36280;DHT22;22317;47.936;12.742;2022-11-20T02:26:00;4.10;64.90
36280;DHT22;22317;47.936;12.742;2022-11-20T02:28:27;4.90;69.50
36280;DHT22;22317;47.936;12.742;2022-11-20T02:30:53;4.50;70.10
36280;DHT22;22317;47.936;12.742;2022-11-20T02:33:19;3.80;70.40
36280;DHT22;22317;47.936;12.742;2022-11-20T02:35:46;5.00;75.50
36280;DHT22;22317;47.936;12.742;2022-11-20T02:38:13;4.70;75.00
36280;DHT22;22317;47.936;12.742;2022-11-20T02:40:39;4.20;75.50
36280;DHT22;22317;47.936;12.742;2022-11-20T02:43:05;4.20;75.60
36280;DHT22;22317;47.936;12.742;2022-11-20T02:45:30;4.40;75.10
36280;DHT22;22317;47.936;12.742;2022-11-20T02:47:56;4.10;75.70
36280;DHT22;22317;47.936;12.742;2022-11-20T02:50:22;4.90;75.60
36280;DHT22;22317;47.936;12.742;2022-11-20T02:52:48;3.80;74.90
36280;DHT22;22317;47.936;12.742;2022-11-20T02:55:14;5.60;76.90
36280;DHT22;22317;47.936;12.742;2022-11-20T02:57:39;4.60;76.00
36280;DHT22;22317;47.936;12.742;2022-11-20T03:00:06;3.80;76.00
36280;DHT22;22317;47.936;12.742;2022-11-20T03:02:32;4.20;71.70
36280;DHT22;22317;47.936;12.742;2022-11-20T03:04:58;5.50;73.80
36280;DHT22;22317;47.936;12.742;2022-11-20T03:07:25;4.70;73.70
36280;DHT22;22317;47.936;12.742;2022-11-20T03:09:50;4.30;73.50
36280;DHT22;22317;47.936;12.742;2022-11-20T03:12:16;4.60;74.50
36280;DHT22;22317;47.936;12.742;2022-11-20T03:14:42;4.30;74.80
36280;DHT22;22317;47.936;12.742;2022-11-20T03:17:07;4.60;75.90
36280;DHT22;22317;47.936;12.742;2022-11-20T03:19:33;4.70;76.20
36280;DHT22;22317;47.936;12.742;2022-11-20T03:22:00;3.80;78.90
36280;DHT22;22317;47.936;12.742;2022-11-20T03:24:26;4.30;77.40
36280;DHT22;22317;47.936;12.742;2022-11-20T03:26:51;4.20;76.80
36280;DHT22;22317;47.936;12.742;2022-11-20T03:29:17;4.30;75.50
36280;DHT22;22317;47.936;12.742;2022-11-20T03:31:43;3.80;88.00
36280;DHT22;22317;47.936;12.742;2022-11-20T03:34:10;4.20;74.50
36280;DHT22;22317;47.936;12.742;2022-11-20T03:36:41;5.20;75.50
36280;DHT22;22317;47.936;12.742;2022-11-20T03:39:07;4.30;73.80
36280;DHT22;22317;47.936;12.742;2022-11-20T03:41:38;4.10;84.60
36280;DHT22;22317;47.936;12.742;2022-11-20T03:44:07;4.30;73.70
36280;DHT22;22317;47.936;12.742;2022-11-20T03:46:34;4.90;74.40
36280;DHT22;22317;47.936;12.742;2022-11-20T03:49:00;3.90;72.90
36280;DHT22;22317;47.936;12.742;2022-11-20T03:51:31;4.00;81.50
36280;DHT22;22317;47.936;12.742;2022-11-20T03:54:03;4.20;71.20
36280;DHT22;22317;47.936;12.742;2022-11-20T03:56:32;4.10;69.70
36280;DHT22;22317;47.936;12.742;2022-11-20T03:58:58;4.60;70.20
36280;DHT22;22317;47.936;12.742;2022-11-20T04:01:27;3.90;67.40
36280;DHT22;22317;47.936;12.742;2022-11-20T04:03:55;4.10;66.40
36280;DHT22;22317;47.936;12.742;2022-11-20T04:06:26;3.90;66.50
36280;DHT22;22317;47.936;12.742;2022-11-20T04:08:55;4.20;67.70
36280;DHT22;22317;47.936;12.742;2022-11-20T04:11:26;3.80;66.50
36280;DHT22;22317;47.936;12.742;2022-11-20T04:13:54;4.00;67.40
36280;DHT22;22317;47.936;12.742;2022-11-20T04:16:21;4.20;66.70
36280;DHT22;22317;47.936;12.742;2022-11-20T04:18:47;4.10;65.30
36280;DHT22;22317;47.936;12.742;2022-11-20T04:21:16;4.50;65.90
36280;DHT22;22317;47.936;12.742;2022-11-20T04:23:42;3.80;66.20
36280;DHT22;22317;47.936;12.742;2022-11-20T04:26:10;4.00;66.80
36280;DHT22;22317;47.936;12.742;2022-11-20T04:28:36;3.90;66.00
36280;DHT22;22317;47.936;12.742;2022-11-20T04:31:15;3.90;66.40
36280;DHT22;22317;47.936;12.742;2022-11-20T04:33:41;3.60;64.90
36280;DHT22;22317;47.936;12.742;2022-11-20T04:36:12;3.90;66.80
36280;DHT22;22317;47.936;12.742;2022-11-20T04:41:07;3.60;64.50
36280;DHT22;22317;47.936;12.742;2022-11-20T04:43:33;3.70;66.60
36280;DHT22;22317;47.936;12.742;2022-11-20T04:46:00;5.00;68.20
36280;DHT22;22317;47.936;12.742;2022-11-20T04:48:27;4.70;67.50
36280;DHT22;22317;47.936;12.742;2022-11-20T04:50:53;4.10;67.90
36280;DHT22;22317;47.936;12.742;2022-11-20T04:53:20;3.60;66.90
36280;DHT22;22317;47.936;12.742;2022-11-20T04:55:46;3.90;67.60
36280;DHT22;22317;47.936;12.742;2022-11-20T04:58:12;4.20;67.80
36280;DHT22;22317;47.936;12.742;2022-11-20T05:00:38;4.40;68.10
36280;DHT22;22317;47.936;12.742;2022-11-20T05:03:04;3.60;67.60
36280;DHT22;22317;47.936;12.742;2022-11-20T05:05:30;4.70;68.80
36280;DHT22;22317;47.936;12.742;2022-11-20T05:10:24;3.70;66.30
36280;DHT22;22317;47.936;12.742;2022-11-20T05:12:49;3.80;68.20
36280;DHT22;22317;47.936;12.742;2022-11-20T05:15:15;4.30;68.50
36280;DHT22;22317;47.936;12.742;2022-11-20T05:17:46;3.70;68.40
36280;DHT22;22317;47.936;12.742;2022-11-20T05:20:12;4.40;69.40
36280;DHT22;22317;47.936;12.742;2022-11-20T05:22:37;3.70;68.10
36280;DHT22;22317;47.936;12.742;2022-11-20T05:25:03;4.00;69.00
36280;DHT22;22317;47.936;12.742;2022-11-20T05:27:29;3.80;68.40
36280;DHT22;22317;47.936;12.742;2022-11-20T05:29:54;3.40;67.50
36280;DHT22;22317;47.936;12.742;2022-11-20T05:32:20;3.70;67.30
36280;DHT22;22317;47.936;12.742;2022-11-20T05:34:46;3.80;67.10
36280;DHT22;22317;47.936;12.742;2022-11-20T05:37:12;3.80;66.80
36280;DHT22;22317;47.936;12.742;2022-11-20T05:39:37;4.50;67.70
36280;DHT22;22317;47.936;12.742;2022-11-20T05:42:03;3.50;66.80
36280;DHT22;22317;47.936;12.742;2022-11-20T05:44:47;3.90;64.70
36280;DHT22;22317;47.936;12.742;2022-11-20T05:47:13;3.50;65.80
36280;DHT22;22317;47.936;12.742;2022-11-20T05:49:38;4.50;67.20
36280;DHT22;22317;47.936;12.742;2022-11-20T05:52:04;3.60;66.20
36280;DHT22;22317;47.936;12.742;2022-11-20T05:54:30;3.80;66.80
36280;DHT22;22317;47.936;12.742;2022-11-20T05:56:55;3.70;65.50
36280;DHT22;22317;47.936;12.742;2022-11-20T05:59:21;4.70;67.50
36280;DHT22;22317;47.936;12.742;2022-11-20T06:01:47;3.60;66.00
36280;DHT22;22317;47.936;12.742;2022-11-20T06:04:12;4.10;66.60
36280;DHT22;22317;47.936;12.742;2022-11-20T06:06:38;4.10;67.30
36280;DHT22;22317;47.936;12.742;2022-11-20T06:09:04;5.10;68.00
36280;DHT22;22317;47.936;12.742;2022-11-20T06:11:30;3.50;75.40
36280;DHT22;22317;47.936;12.742;2022-11-20T06:13:55;3.60;65.90
36280;DHT22;22317;47.936;12.742;2022-11-20T06:16:21;3.70;66.70
36280;DHT22;22317;47.936;12.742;2022-11-20T06:18:47;3.50;65.20
36280;DHT22;22317;47.936;12.742;2022-11-20T06:21:15;3.80;65.70
36280;DHT22;22317;47.936;12.742;2022-11-20T06:23:42;3.90;65.80
36280;DHT22;22317;47.936;12.742;2022-11-20T06:26:13;3.80;66.20
36280;DHT22;22317;47.936;12.742;2022-11-20T06:28:39;4.10;65.70
36280;DHT22;22317;47.936;12.742;2022-11-20T06:31:06;3.50;65.50
36280;DHT22;22317;47.936;12.742;2022-11-20T06:33:33;3.60;64.80
36280;DHT22;22317;47.936;12.742;2022-11-20T06:36:00;3.90;65.90
36280;DHT22;22317;47.936;12.742;2022-11-20T06:38:26;4.30;66.10
36280;DHT22;22317;47.936;12.742;2022-11-20T06:40:52;4.10;65.30
36280;DHT22;22317;47.936;12.742;2022-11-20T06:43:18;4.00;64.90
36280;DHT22;22317;47.936;12.742;2022-11-20T06:45:44;4.70;66.20
36280;DHT22;22317;47.936;12.742;2022-11-20T06:48:10;4.50;65.60
36280;DHT22;22317;47.936;12.742;2022-11-20T06:50:39;3.80;65.10
36280;DHT22;22317;47.936;12.742;2022-11-20T06:53:04;3.80;64.50
36280;DHT22;22317;47.936;12.742;2022-11-20T06:55:31;3.90;65.10
36280;DHT22;22317;47.936;12.742;2022-11-20T06:57:57;4.00;65.90
36280;DHT22;22317;47.936;12.742;2022-11-20T07:00:23;4.30;65.10
36280;DHT22;22317;47.936;12.742;2022-11-20T07:02:49;3.70;63.40
36280;DHT22;22317;47.936;12.742;2022-11-20T07:05:15;3.80;65.20
36280;DHT22;22317;47.936;12.742;2022-11-20T07:07:41;3.70;64.10
36280;DHT22;22317;47.936;12.742;2022-11-20T07:10:08;3.80;63.30
36280;DHT22;22317;47.936;12.742;2022-11-20T07:12:34;3.80;63.20
36280;DHT22;22317;47.936;12.742;2022-11-20T07:14:59;4.00;63.90
36280;DHT22;22317;47.936;12.742;2022-11-20T07:17:25;3.90;64.10
36280;DHT22;22317;47.936;12.742;2022-11-20T07:19:51;4.20;64.00
36280;DHT22;22317;47.936;12.742;2022-11-20T07:22:16;3.90;62.60
36280;DHT22;22317;47.936;12.742;2022-11-20T07:24:42;3.90;64.00
36280;DHT22;22317;47.936;12.742;2022-11-20T07:27:08;4.00;63.20
36280;DHT22;22317;47.936;12.742;2022-11-20T07:29:34;4.00;62.30
36280;DHT22;22317;47.936;12.742;2022-11-20T07:32:00;4.10;62.30
36280;DHT22;22317;47.936;12.742;2022-11-20T07:34:25;4.50;63.30
36280;DHT22;22317;47.936;12.742;2022-11-20T07:36:51;4.40;63.00
36280;DHT22;22317;47.936;12.742;2022-11-20T07:39:17;4.10;63.20
36280;DHT22;22317;47.936;12.742;2022-11-20T07:41:42;3.80;72.40
36280;DHT22;22317;47.936;12.742;2022-11-20T07:44:08;4.30;63.80
36280;DHT22;22317;47.936;12.742;2022-11-20T07:46:34;4.10;63.00
36280;DHT22;22317;47.936;12.742;2022-11-20T07:49:00;4.20;63.00
36280;DHT22;22317;47.936;12.742;2022-11-20T07:51:25;4.00;70.90
36280;DHT22;22317;47.936;12.742;2022-11-20T07:53:53;4.90;63.30
36280;DHT22;22317;47.936;12.742;2022-11-20T07:56:18;4.20;62.90
36280;DHT22;22317;47.936;12.742;2022-11-20T07:58:44;4.90;63.10
36280;DHT22;22317;47.936;12.742;2022-11-20T08:01:10;4.60;62.60
36280;DHT22;22317;47.936;12.742;2022-11-20T08:03:36;4.00;62.10
36280;DHT22;22317;47.936;12.742;2022-11-20T08:06:03;4.10;61.60
36280;DHT22;22317;47.936;12.742;2022-11-20T08:08:29;4.30;61.20
36280;DHT22;22317;47.936;12.742;2022-11-20T08:10:58;4.50;62.00
36280;DHT22;22317;47.936;12.742;2022-11-20T08:13:53;4.30;60.40
36280;DHT22;22317;47.936;12.742;2022-11-20T08:16:38;4.40;59.70
36280;DHT22;22317;47.936;12.742;2022-11-20T08:19:03;4.90;61.60
36280;DHT22;22317;47.936;12.742;2022-11-20T08:21:30;4.70;70.00
36280;DHT22;22317;47.936;12.742;2022-11-20T08:23:57;4.40;61.00
36280;DHT22;22317;47.936;12.742;2022-11-20T08:26:23;4.50;60.10
36280;DHT22;22317;47.936;12.742;2022-11-20T08:28:53;4.30;60.30
36280;DHT22;22317;47.936;12.742;2022-11-20T08:31:20;4.80;61.40
36280;DHT22;22317;47.936;12.742;2022-11-20T08:33:46;4.60;60.20
36280;DHT22;22317;47.936;12.742;2022-11-20T08:36:12;4.60;60.40
36280;DHT22;22317;47.936;12.742;2022-11-20T08:38:39;4.90;60.70
36280;DHT22;22317;47.936;12.742;2022-11-20T08:41:05;4.40;59.70
36280;DHT22;22317;47.936;12.742;2022-11-20T08:43:50;4.70;59.10
36280;DHT22;22317;47.936;12.742;2022-11-20T08:46:16;5.00;59.60
36280;DHT22;22317;47.936;12.742;2022-11-20T08:48:43;5.10;60.20
36280;DHT22;22317;47.936;12.742;2022-11-20T08:51:10;5.00;60.00
36280;DHT22;22317;47.936;12.742;2022-11-20T08:53:39;5.10;59.00
36280;DHT22;22317;47.936;12.742;2022-11-20T08:56:05;5.30;59.40
36280;DHT22;22317;47.936;12.742;2022-11-20T08:58:31;5.60;59.30
36280;DHT22;22317;47.936;12.742;2022-11-20T09:00:57;6.10;59.10
36280;DHT22;22317;47.936;12.742;2022-11-20T09:03:23;6.30;57.60
36280;DHT22;22317;47.936;12.742;2022-11-20T09:05:49;6.20;58.90
36280;DHT22;22317;47.936;12.742;2022-11-20T09:08:14;6.40;56.40
36280;DHT22;22317;47.936;12.742;2022-11-20T09:10:40;6.60;57.70
36280;DHT22;22317;47.936;12.742;2022-11-20T09:13:06;6.80;55.40
36280;DHT22;22317;47.936;12.742;2022-11-20T09:15:32;7.00;56.20
36280;DHT22;22317;47.936;12.742;2022-11-20T09:18:00;7.20;56.40
36280;DHT22;22317;47.936;12.742;2022-11-20T09:20:28;7.40;55.20
36280;DHT22;22317;47.936;12.742;2022-11-20T09:22:54;7.60;55.10
36280;DHT22;22317;47.936;12.742;2022-11-20T09:25:21;7.80;54.70
36280;DHT22;22317;47.936;12.742;2022-11-20T09:27:46;8.10;54.50
36280;DHT22;22317;47.936;12.742;2022-11-20T09:30:13;8.20;53.80
36280;DHT22;22317;47.936;12.742;2022-11-20T09:32:40;8.40;52.20
36280;DHT22;22317;47.936;12.742;2022-11-20T09:35:06;8.30;52.60
36280;DHT22;22317;47.936;12.742;2022-11-20T09:37:32;8.70;52.20
36280;DHT22;22317;47.936;12.742;2022-11-20T09:39:58;9.10;57.80
36280;DHT22;22317;47.936;12.742;2022-11-20T09:50:49;9.80;49.60
36280;DHT22;22317;47.936;12.742;2022-11-20T09:55:48;10.10;48.50
36280;DHT22;22317;47.936;12.742;2022-11-20T09:58:35;10.10;48.70
36280;DHT22;22317;47.936;12.742;2022-11-20T10:01:16;10.30;47.60
36280;DHT22;22317;47.936;12.742;2022-11-20T10:06:18;10.20;47.40
36280;DHT22;22317;47.936;12.742;2022-11-20T10:17:30;10.10;51.40
36280;DHT22;22317;47.936;12.742;2022-11-20T10:22:42;10.30;46.30
36280;DHT22;22317;47.936;12.742;2022-11-20T10:25:30;10.50;46.40
36280;DHT22;22317;47.936;12.742;2022-11-20T10:28:34;10.70;45.50
36280;DHT22;22317;47.936;12.742;2022-11-20T10:31:12;10.60;44.10
36280;DHT22;22317;47.936;12.742;2022-11-20T10:33:42;10.20;43.80
36280;DHT22;22317;47.936;12.742;2022-11-20T10:38:44;9.90;44.60
36280;DHT22;22317;47.936;12.742;2022-11-20T10:41:17;9.70;43.70
36280;DHT22;22317;47.936;12.742;2022-11-20T10:46:39;9.10;43.20
36280;DHT22;22317;47.936;12.742;2022-11-20T10:49:12;8.70;51.60
36280;DHT22;22317;47.936;12.742;2022-11-20T10:54:32;8.70;43.80
36280;DHT22;22317;47.936;12.742;2022-11-20T10:57:15;8.50;44.10
36280;DHT22;22317;47.936;12.742;2022-11-20T10:59:52;8.40;44.70
36280;DHT22;22317;47.936;12.742;2022-11-20T11:02:32;8.30;44.50
36280;DHT22;22317;47.936;12.742;2022-11-20T11:07:39;8.30;52.40
36280;DHT22;22317;47.936;12.742;2022-11-20T11:10:19;8.10;45.20
36280;DHT22;22317;47.936;12.742;2022-11-20T11:12:47;7.90;44.80
36280;DHT22;22317;47.936;12.742;2022-11-20T11:15:39;8.00;45.20
36280;DHT22;22317;47.936;12.742;2022-11-20T11:18:09;8.00;44.80
36280;DHT22;22317;47.936;12.742;2022-11-20T11:20:35;7.90;45.30
36280;DHT22;22317;47.936;12.742;2022-11-20T11:23:02;7.80;45.00
36280;DHT22;22317;47.936;12.742;2022-11-20T11:25:37;7.90;46.10
36280;DHT22;22317;47.936;12.742;2022-11-20T11:28:22;7.90;46.20
36280;DHT22;22317;47.936;12.742;2022-11-20T11:30:50;7.90;45.20
36280;DHT22;22317;47.936;12.742;2022-11-20T11:33:24;8.10;45.00
36280;DHT22;22317;47.936;12.742;2022-11-20T11:35:58;8.10;45.40
36280;DHT22;22317;47.936;12.742;2022-11-20T11:38:41;8.10;44.80
36280;DHT22;22317;47.936;12.742;2022-11-20T11:41:21;8.10;44.90
36280;DHT22;22317;47.936;12.742;2022-11-20T11:43:53;8.10;44.40
36280;DHT22;22317;47.936;12.742;2022-11-20T11:46:39;8.20;45.90
36280;DHT22;22317;47.936;12.742;2022-11-20T11:51:46;8.10;52.10
36280;DHT22;22317;47.936;12.742;2022-11-20T11:54:22;8.40;44.70
36280;DHT22;22317;47.936;12.742;2022-11-20T11:56:49;8.50;44.60
36280;DHT22;22317;47.936;12.742;2022-11-20T11:59:33;8.60;45.00
36280;DHT22;22317;47.936;12.742;2022-11-20T12:02:22;8.90;43.50
36280;DHT22;22317;47.936;12.742;2022-11-20T12:04:57;9.10;43.80
36280;DHT22;22317;47.936;12.742;2022-11-20T12:07:41;9.70;43.50
36280;DHT22;22317;47.936;12.742;2022-11-20T12:13:04;9.90;41.20
36280;DHT22;22317;47.936;12.742;2022-11-20T12:15:33;10.00;41.80
36280;DHT22;22317;47.936;12.742;2022-11-20T12:18:00;10.00;41.90
36280;DHT22;22317;47.936;12.742;2022-11-20T12:20:34;10.00;41.90
36280;DHT22;22317;47.936;12.742;2022-11-20T12:23:23;10.10;41.10
36280;DHT22;22317;47.936;12.742;2022-11-20T12:25:54;10.30;41.50
36280;DHT22;22317;47.936;12.742;2022-11-20T12:28:43;10.40;41.50
36280;DHT22;22317;47.936;12.742;2022-11-20T12:37:36;9.80;39.90
36280;DHT22;22317;47.936;12.742;2022-11-20T12:43:06;9.20;40.50
36280;DHT22;22317;47.936;12.742;2022-11-20T12:46:34;9.00;40.40
36280;DHT22;22317;47.936;12.742;2022-11-20T12:52:06;8.60;49.10
36280;DHT22;22317;47.936;12.742;2022-11-20T12:55:03;8.30;40.90
36280;DHT22;22317;47.936;12.742;2022-11-20T13:00:23;8.10;41.60
36280;DHT22;22317;47.936;12.742;2022-11-20T13:08:21;7.80;42.10
36280;DHT22;22317;47.936;12.742;2022-11-20T13:14:08;7.60;42.10
36280;DHT22;22317;47.936;12.742;2022-11-20T13:19:16;7.40;43.30
36280;DHT22;22317;47.936;12.742;2022-11-20T13:21:44;6.30;51.20
36280;DHT22;22317;47.936;12.742;2022-11-20T13:27:18;7.20;43.40
36280;DHT22;22317;47.936;12.742;2022-11-20T13:32:30;7.20;43.50
36280;DHT22;22317;47.936;12.742;2022-11-20T13:35:02;7.10;45.00
36280;DHT22;22317;47.936;12.742;2022-11-20T13:37:32;7.40;44.20
36280;DHT22;22317;47.936;12.742;2022-11-20T13:42:45;6.90;43.80
36280;DHT22;22317;47.936;12.742;2022-11-20T13:45:26;7.00;44.50
36280;DHT22;22317;47.936;12.742;2022-11-20T13:47:53;7.00;44.80
36280;DHT22;22317;47.936;12.742;2022-11-20T13:55:58;7.10;44.50
36280;DHT22;22317;47.936;12.742;2022-11-20T14:01:15;7.10;44.50
36280;DHT22;22317;47.936;12.742;2022-11-20T14:03:42;7.10;44.40
36280;DHT22;22317;47.936;12.742;2022-11-20T14:08:53;7.10;45.40
36280;DHT22;22317;47.936;12.742;2022-11-20T14:11:30;7.10;45.40
36280;DHT22;22317;47.936;12.742;2022-11-20T14:14:18;7.00;44.60
36280;DHT22;22317;47.936;12.742;2022-11-20T14:16:45;7.00;44.90
36280;DHT22;22317;47.936;12.742;2022-11-20T14:21:53;6.70;45.10
36280;DHT22;22317;47.936;12.742;2022-11-20T14:24:22;6.70;45.20
36280;DHT22;22317;47.936;12.742;2022-11-20T14:26:48;6.70;45.70
36280;DHT22;22317;47.936;12.742;2022-11-20T14:31:43;6.70;53.80
36280;DHT22;22317;47.936;12.742;2022-11-20T14:34:19;6.50;46.40
36280;DHT22;22317;47.936;12.742;2022-11-20T14:36:45;6.50;46.70
36280;DHT22;22317;47.936;12.742;2022-11-20T14:39:19;6.40;46.40
36280;DHT22;22317;47.936;12.742;2022-11-20T14:41:53;6.30;45.90
36280;DHT22;22317;47.936;12.742;2022-11-20T14:44:27;6.20;46.90
36280;DHT22;22317;47.936;12.742;2022-11-20T14:46:54;6.40;47.20
36280;DHT22;22317;47.936;12.742;2022-11-20T14:49:20;6.10;47.20
36280;DHT22;22317;47.936;12.742;2022-11-20T14:51:46;5.80;47.10
36280;DHT22;22317;47.936;12.742;2022-11-20T14:56:41;6.00;47.50
36280;DHT22;22317;47.936;12.742;2022-11-20T14:59:08;5.90;48.00
36280;DHT22;22317;47.936;12.742;2022-11-20T15:01:35;5.80;56.40
36280;DHT22;22317;47.936;12.742;2022-11-20T15:04:09;5.70;49.00
36280;DHT22;22317;47.936;12.742;2022-11-20T15:06:37;5.00;47.70
36280;DHT22;22317;47.936;12.742;2022-11-20T15:09:04;5.30;48.90
36280;DHT22;22317;47.936;12.742;2022-11-20T15:11:33;5.70;57.60
36280;DHT22;22317;47.936;12.742;2022-11-20T15:14:05;5.40;49.70
36280;DHT22;22317;47.936;12.742;2022-11-20T15:16:32;5.40;50.60
36280;DHT22;22317;47.936;12.742;2022-11-20T15:18:58;5.40;50.50
36280;DHT22;22317;47.936;12.742;2022-11-20T15:21:25;5.30;58.90
36280;DHT22;22317;47.936;12.742;2022-11-20T15:23:51;5.20;51.50
36280;DHT22;22317;47.936;12.742;2022-11-20T15:26:27;5.20;51.40
36280;DHT22;22317;47.936;12.742;2022-11-20T15:28:53;5.10;51.50
36280;DHT22;22317;47.936;12.742;2022-11-20T15:31:22;5.10;52.40
36280;DHT22;22317;47.936;12.742;2022-11-20T15:33:48;4.90;51.70
36280;DHT22;22317;47.936;12.742;2022-11-20T15:36:14;5.00;52.40
36280;DHT22;22317;47.936;12.742;2022-11-20T15:38:40;5.00;52.60
36280;DHT22;22317;47.936;12.742;2022-11-20T15:41:06;4.80;53.20
36280;DHT22;22317;47.936;12.742;2022-11-20T15:43:32;5.10;53.10
36280;DHT22;22317;47.936;12.742;2022-11-20T15:46:15;5.10;54.40
36280;DHT22;22317;47.936;12.742;2022-11-20T15:48:44;4.80;53.70
36280;DHT22;22317;47.936;12.742;2022-11-20T15:53:37;4.60;54.10
36280;DHT22;22317;47.936;12.742;2022-11-20T15:56:07;4.70;54.80
36280;DHT22;22317;47.936;12.742;2022-11-20T15:58:34;4.60;55.00
36280;DHT22;22317;47.936;12.742;2022-11-20T16:01:00;4.80;53.80
36280;DHT22;22317;47.936;12.742;2022-11-20T16:03:26;4.70;53.90
36280;DHT22;22317;47.936;12.742;2022-11-20T16:05:51;4.90;55.10
36280;DHT22;22317;47.936;12.742;2022-11-20T16:08:17;4.80;54.40
36280;DHT22;22317;47.936;12.742;2022-11-20T16:10:43;4.70;56.00
36280;DHT22;22317;47.936;12.742;2022-11-20T16:13:15;4.60;54.40
36280;DHT22;22317;47.936;12.742;2022-11-20T16:16:01;4.80;55.60
36280;DHT22;22317;47.936;12.742;2022-11-20T16:18:29;4.50;55.10
36280;DHT22;22317;47.936;12.742;2022-11-20T16:20:55;4.70;54.80
36280;DHT22;22317;47.936;12.742;2022-11-20T16:23:21;4.80;54.80
36280;DHT22;22317;47.936;12.742;2022-11-20T16:25:48;4.60;55.30
36280;DHT22;22317;47.936;12.742;2022-11-20T16:28:15;4.60;55.30
36280;DHT22;22317;47.936;12.742;2022-11-20T16:30:41;4.50;55.80
36280;DHT22;22317;47.936;12.742;2022-11-20T16:33:11;4.80;54.80
36280;DHT22;22317;47.936;12.742;2022-11-20T16:35:38;4.90;56.20
36280;DHT22;22317;47.936;12.742;2022-11-20T16:38:04;4.50;55.80
36280;DHT22;22317;47.936;12.742;2022-11-20T16:40:30;4.60;54.90
36280;DHT22;22317;47.936;12.742;2022-11-20T16:42:56;4.60;55.20
36280;DHT22;22317;47.936;12.742;2022-11-20T16:45:23;4.60;63.80
36280;DHT22;22317;47.936;12.742;2022-11-20T16:47:54;3.60;55.00
36280;DHT22;22317;47.936;12.742;2022-11-20T16:52:46;4.70;55.40
36280;DHT22;22317;47.936;12.742;2022-11-20T16:55:12;4.40;54.90
36280;DHT22;22317;47.936;12.742;2022-11-20T16:57:37;4.70;54.80
36280;DHT22;22317;47.936;12.742;2022-11-20T17:00:05;4.60;55.50
36280;DHT22;22317;47.936;12.742;2022-11-20T17:02:31;4.40;54.80
36280;DHT22;22317;47.936;12.742;2022-11-20T17:04:57;4.60;54.60
36280;DHT22;22317;47.936;12.742;2022-11-20T17:07:22;4.80;56.20
36280;DHT22;22317;47.936;12.742;2022-11-20T17:09:48;4.70;56.20
36280;DHT22;22317;47.936;12.742;2022-11-20T17:12:14;4.70;54.80
36280;DHT22;22317;47.936;12.742;2022-11-20T17:14:40;4.60;55.70
36280;DHT22;22317;47.936;12.742;2022-11-20T17:17:05;4.50;54.50
36280;DHT22;22317;47.936;12.742;2022-11-20T17:19:31;4.60;55.30
36280;DHT22;22317;47.936;12.742;2022-11-20T17:21:57;4.70;55.10
36280;DHT22;22317;47.936;12.742;2022-11-20T17:24:23;4.30;54.70
36280;DHT22;22317;47.936;12.742;2022-11-20T17:26:49;5.60;56.20
36280;DHT22;22317;47.936;12.742;2022-11-20T17:29:17;4.70;55.50
36280;DHT22;22317;47.936;12.742;2022-11-20T17:31:43;4.50;64.00
36280;DHT22;22317;47.936;12.742;2022-11-20T17:34:11;4.70;55.50
36280;DHT22;22317;47.936;12.742;2022-11-20T17:36:37;4.80;55.50
36280;DHT22;22317;47.936;12.742;2022-11-20T17:39:10;4.70;54.50